createdAt,value
2023-02-06T00:07:07.543Z,94.18
2023-02-06T00:22:10.475Z,93.62
2023-02-06T00:37:12.287Z,93.17
2023-02-06T00:52:13.895Z,92.93
2023-02-06T01:07:15.548Z,93.14
2023-02-06T01:22:17.185Z,93.12
2023-02-06T01:37:18.804Z,92.91
2023-02-06T02:24:45.034Z,92.52
2023-02-06T02:40:00.753Z,94.39
2023-02-06T02:55:02.284Z,94.33
2023-02-06T03:10:10.024Z,93.38
2023-02-06T03:25:13.730Z,93.18
2023-02-06T03:40:15.956Z,93.52
2023-02-06T03:55:22.546Z,92.05
2023-02-06T04:10:26.294Z,92.40
2023-02-06T04:25:28.071Z,92.65
2023-02-06T04:40:29.686Z,93.14
2023-02-06T04:55:31.249Z,91.99
2023-02-06T05:10:32.773Z,91.79
2023-02-06T05:25:35.261Z,91.18
2023-02-06T05:57:10.952Z,90.82
2023-02-06T06:12:12.604Z,90.69
2023-02-06T06:27:14.102Z,91.11
2023-02-06T06:42:15.693Z,89.95
2023-02-06T06:57:17.421Z,88.56
2023-02-06T07:12:18.992Z,82.10
2023-02-06T07:27:20.624Z,86.41
2023-02-06T07:42:22.146Z,85.75
2023-02-06T07:57:23.892Z,86.23
2023-02-06T08:28:50.484Z,82.25
2023-02-06T11:28:12.484Z,81.68
2023-02-06T11:43:22.330Z,81.70
2023-02-06T11:58:26.245Z,80.16
2023-02-06T12:13:35.340Z,79.91
2023-02-06T12:28:46.099Z,79.64
2023-02-06T12:43:50.529Z,79.65
2023-02-06T12:58:55.143Z,79.50
2023-02-06T13:14:01.292Z,77.88
2023-02-06T13:29:02.834Z,78.89
2023-02-06T13:44:06.875Z,77.42
2023-02-06T13:59:43.943Z,79.15
2023-02-06T14:15:03.469Z,77.92
2023-02-06T14:30:17.922Z,79.09
2023-02-06T14:45:41.666Z,79.63
2023-02-06T15:00:56.972Z,80.19
2023-02-06T17:43:53.901Z,86.20
2023-02-06T18:15:31.544Z,83.36
2023-02-06T18:30:34.344Z,83.19
2023-02-06T18:45:37.470Z,84.51
2023-02-06T19:00:42.442Z,84.84
2023-02-06T19:15:45.327Z,84.36
2023-02-06T19:30:46.993Z,82.28
2023-02-06T19:45:48.830Z,82.03
2023-02-06T20:00:50.411Z,82.38
2023-02-06T20:15:52.042Z,83.88
2023-02-06T20:47:24.009Z,89.54
